Gretna, FL (32332)

4:41 PM EST on February 10, 2016 (GMT -0500)
Greensboro/Flat Creek | | Change Station
CLOSE
Current Station
Personal Weather Station
Location: Quincy, FL
Elevation: 285 ft
Nearby Weather Stations
Active Advisory: Freeze Warning

Elev 285 ft 30.59 °N, 84.73 °W | Updated 8 seconds ago

Clear
Clear
49.1 °F
Feels Like 49 °F
N
0.2
Wind Variable Wind from West
Gusts 2.5 mph

Today
High -- | Low -- °F
--% Chance of Precip.
Yesterday
High -- | Low -- °F
Precip. -- in
Pressure 30.20 in
Visibility 10.0 miles
Clouds Clear
Windchill 49 °F
Dew Point 12 °F
Humidity 22%
Rainfall 0.00 in
Snow Depth Not available.
7:23 AM 6:22 PM
Waxing Crescent, 7% visible
METAR KTLH 102053Z 28016G24KT 10SM CLR 11/M12 A3020 RMK AO2 SLP227 T01111122 55012
Pressure 30.20 in
Visibility 10.0 miles
Clouds Clear
Windchill 49 °F
Dew Point 12 °F
Humidity 22%
Rainfall 0.00 in
Snow Depth Not available.
7:23 AM 6:22 PM
Waxing Crescent, 7% visible
METAR KTLH 102053Z 28016G24KT 10SM CLR 11/M12 A3020 RMK AO2 SLP227 T01111122 55012

10-Day Weather Forecast

Almanac

Astronomy

Feb. 10, 2016 Rise Set
Actual Time
Civil Twilight
Nautical Twilight
Astronomical Twilight
Moon
Length of Visible Light
Length of Day
Tomorrow will be .
, % of the Moon is Illuminated

Today's Extremes

State Highs State Lows

Community

WunderPhotos

Upload Photos

1,891,951 photos uploaded!

WunderBlog® & News

Nearby

Air Quality

  Air Quality AQ Index Pollutant
Not available.

Snow Depth

Station Depth Elevation

Earthquake Activity

City Distance Mag. Time & Date
Minimum magnitude displayed is 2.5.

Coastal Water Temperatures

Place Temperature

Stations

Nearby Weather Stations

Station Location Temp. Windchill Dew Point Humidity Wind Precip. Elev Updated Type
                   

Watches & Warnings

Freeze Warning
Issued: 1:32 PM CST Feb. 10, 2016 – National Weather Service

... Freeze warning in effect from midnight EST /11 PM CST/ tonight
to 9 am EST /8 am CST/ Thursday...

The National Weather Service in Tallahassee has issued a freeze
warning... which is in effect from midnight EST /11 PM CST/
tonight to 9 am EST /8 am CST/ Thursday. The freeze watch is no
longer in effect.

* Min temperatures... 26 to 32 degrees.

Precautionary/preparedness actions...

A freeze warning means sub-freezing temperatures are imminent or
highly likely. These conditions will kill crops and other
sensitive vegetation.